»·PEaware :: N973SE KBFL-KSBP

N973SE :: KBFL-KSBP

FLIGHT INFORMATION

Flight Status: Arrived
Operator: Privately registered:
United States
More flights under this callsign
Pilot: Stig E. (4778)
Aircraft: Unknown
(DA62)
More flights by this aircraft type
Origin: KBFL Meadows
United States
Destination: KSBP San Luis Co Regl
United States
More flights between these airports :: More routes between these airports
Route: FLW
File this flight plan on PilotEdge
Remarks:
Altitude:
(Current/Filed)
6,500ft
Speed:
(Current/Filed)
160kts
Departed: 10-Jul-18 03:17 AM
Arrived: 10-Jul-18 03:54 AM
Distance/Time
Traveled:
78nm/0:37
Distance/Time
To Go:
Arrived

Flight Plot

Page will automatically refresh every two minutes.


Map Options




Map Legend


Flown Route
Filed Route
Departure Airport
Arrival Airport
Navaid (VOR, NDB)
Fix

Horizontal Profiles

Position Reports

Time Latitude Longitude Heading Altitude Ground
Speed
10-Jul-18 02:07 35.435704 -119.052043 179 497ft 0kts
10-Jul-18 02:08 35.435704 -119.052043 179 497ft 0kts
10-Jul-18 02:09 35.435704 -119.052043 179 497ft 0kts
10-Jul-18 02:10 35.435704 -119.052043 179 497ft 0kts
10-Jul-18 02:11 35.435704 -119.052043 179 497ft 0kts
10-Jul-18 02:12 35.435704 -119.052043 180 497ft 0kts
10-Jul-18 02:13 35.435704 -119.052043 180 497ft 0kts
10-Jul-18 02:14 35.435704 -119.052043 180 497ft 0kts
10-Jul-18 02:15 35.435704 -119.052043 180 497ft 0kts
10-Jul-18 02:16 35.435704 -119.052043 180 497ft 0kts
10-Jul-18 02:17 35.435704 -119.052043 180 497ft 0kts
10-Jul-18 02:18 35.435704 -119.052043 180 497ft 0kts
10-Jul-18 02:19 35.435704 -119.052043 180 497ft 0kts
10-Jul-18 02:20 35.435704 -119.052043 180 497ft 0kts
10-Jul-18 02:21 35.435704 -119.052043 180 497ft 0kts
10-Jul-18 02:22 35.435704 -119.052043 180 497ft 0kts
10-Jul-18 02:23 35.435704 -119.052043 180 497ft 0kts
10-Jul-18 02:24 35.435704 -119.052043 180 497ft 0kts
10-Jul-18 02:25 35.435704 -119.052043 180 497ft 0kts
10-Jul-18 02:26 35.435704 -119.052043 180 497ft 0kts
10-Jul-18 02:27 35.435704 -119.052043 180 497ft 0kts
10-Jul-18 02:28 35.435704 -119.052043 180 497ft 0kts
10-Jul-18 02:29 35.435704 -119.052043 180 497ft 0kts
10-Jul-18 02:30 35.435704 -119.052043 180 497ft 0kts
10-Jul-18 02:31 35.435704 -119.052043 180 497ft 0kts
10-Jul-18 02:32 35.435704 -119.052043 180 497ft 0kts
10-Jul-18 02:33 35.435704 -119.052043 180 497ft 0kts
10-Jul-18 02:34 35.435704 -119.052043 180 497ft 0kts
10-Jul-18 02:35 35.435704 -119.052043 180 497ft 0kts
10-Jul-18 02:36 35.435704 -119.052043 180 497ft 0kts
10-Jul-18 02:37 35.435704 -119.052043 180 497ft 0kts
10-Jul-18 02:38 35.435704 -119.052043 180 497ft 0kts
10-Jul-18 02:39 35.435704 -119.052043 180 497ft 0kts
10-Jul-18 02:40 35.435704 -119.052043 180 497ft 0kts
10-Jul-18 02:41 35.435704 -119.052043 180 497ft 0kts
10-Jul-18 02:42 35.435704 -119.052043 180 497ft 0kts
10-Jul-18 02:43 35.435704 -119.052043 180 497ft 0kts
10-Jul-18 02:44 35.435704 -119.052043 180 497ft 0kts
10-Jul-18 02:45 35.435704 -119.052043 180 497ft 0kts
10-Jul-18 02:46 35.435704 -119.052043 180 497ft 0kts
10-Jul-18 02:47 35.435704 -119.052043 180 497ft 0kts
10-Jul-18 02:48 35.435704 -119.052043 180 497ft 0kts
10-Jul-18 02:49 35.435704 -119.052043 180 497ft 0kts
10-Jul-18 02:50 35.435704 -119.052043 180 497ft 0kts
10-Jul-18 02:51 35.435704 -119.052043 180 497ft 0kts
10-Jul-18 02:52 35.435704 -119.052043 180 497ft 0kts
10-Jul-18 02:53 35.435704 -119.052043 180 497ft 0kts
10-Jul-18 02:54 35.435704 -119.052043 180 497ft 0kts
10-Jul-18 02:55 35.435704 -119.052043 180 497ft 0kts
10-Jul-18 02:56 35.435704 -119.052043 180 497ft 0kts
10-Jul-18 02:57 35.435704 -119.052043 180 497ft 0kts
10-Jul-18 02:58 35.435704 -119.052043 180 497ft 0kts
10-Jul-18 02:59 35.435704 -119.052043 180 497ft 0kts
10-Jul-18 03:00 35.435704 -119.052043 180 497ft 0kts
10-Jul-18 03:01 35.435704 -119.052043 180 497ft 0kts
10-Jul-18 03:02 35.435704 -119.052043 180 497ft 0kts
10-Jul-18 03:03 35.435704 -119.052043 180 497ft 0kts
10-Jul-18 03:04 35.435704 -119.052043 180 497ft 0kts
10-Jul-18 03:05 35.435704 -119.052043 180 497ft 0kts
10-Jul-18 03:06 35.435704 -119.052043 180 497ft 0kts
10-Jul-18 03:07 35.435704 -119.052043 180 497ft 0kts
10-Jul-18 03:08 35.435704 -119.052043 180 497ft 0kts
10-Jul-18 03:09 35.435704 -119.052043 180 497ft 0kts
10-Jul-18 03:10 35.435704 -119.052043 180 497ft 0kts
10-Jul-18 03:11 35.435185 -119.053499 214 497ft 6kts
10-Jul-18 03:12 35.434501 -119.054271 227 497ft 6kts
10-Jul-18 03:13 35.431760 -119.051433 133 497ft 19kts
10-Jul-18 03:14 35.427587 -119.046407 135 497ft 22kts
10-Jul-18 03:15 35.425449 -119.044755 275 497ft 0kts
10-Jul-18 03:16 35.425449 -119.044755 275 497ft 0kts
10-Jul-18 03:17 35.425449 -119.044755 275 497ft 0kts
10-Jul-18 03:18 35.428999 -119.050328 315 497ft 85kts
10-Jul-18 03:19 35.450079 -119.072073 1 1428ft 116kts
10-Jul-18 03:20 35.461160 -119.046519 129 2820ft 106kts
10-Jul-18 03:21 35.440256 -119.020185 133 4031ft 110kts
10-Jul-18 03:22 35.418215 -118.993819 148 5213ft 114kts
10-Jul-18 03:23 35.402283 -119.015814 275 6382ft 111kts
10-Jul-18 03:24 35.402063 -119.063508 263 6505ft 160kts
10-Jul-18 03:25 35.390145 -119.118437 252 6500ft 170kts
10-Jul-18 03:26 35.372235 -119.172278 247 6499ft 172kts
10-Jul-18 03:27 35.352430 -119.224735 246 6500ft 172kts
10-Jul-18 03:28 35.331610 -119.277606 245 6500ft 172kts
10-Jul-18 03:29 35.310458 -119.330515 245 6500ft 172kts
10-Jul-18 03:30 35.289265 -119.383195 245 6500ft 172kts
10-Jul-18 03:31 35.268055 -119.435752 245 6500ft 172kts
10-Jul-18 03:32 35.246738 -119.488466 245 6500ft 172kts
10-Jul-18 03:33 35.225376 -119.541196 245 6499ft 172kts
10-Jul-18 03:34 35.204013 -119.593843 245 6497ft 172kts
10-Jul-18 03:35 35.182851 -119.645909 245 6495ft 172kts
10-Jul-18 03:36 35.161451 -119.697772 244 6521ft 171kts
10-Jul-18 03:37 35.140067 -119.749907 244 6519ft 171kts
10-Jul-18 03:38 35.118762 -119.801984 244 6518ft 171kts
10-Jul-18 03:39 35.097159 -119.853945 243 6517ft 171kts
10-Jul-18 03:40 35.094415 -119.910732 271 6516ft 169kts
10-Jul-18 03:41 35.094752 -119.967211 272 6516ft 169kts
10-Jul-18 03:42 35.102345 -120.023240 283 6515ft 167kts
10-Jul-18 03:43 35.110490 -120.078983 280 6513ft 168kts
10-Jul-18 03:44 35.116711 -120.135596 278 6405ft 167kts
10-Jul-18 03:45 35.122158 -120.192020 277 5962ft 167kts
10-Jul-18 03:46 35.127316 -120.248443 277 5542ft 166kts
10-Jul-18 03:47 35.132304 -120.304231 277 5003ft 165kts
10-Jul-18 03:48 35.137199 -120.359674 277 4392ft 163kts
10-Jul-18 03:49 35.142109 -120.415734 277 3600ft 167kts
10-Jul-18 03:50 35.146850 -120.471881 276 2846ft 165kts
10-Jul-18 03:51 35.167378 -120.520426 304 2101ft 162kts
10-Jul-18 03:52 35.192315 -120.563886 305 1692ft 138kts
10-Jul-18 03:53 35.211258 -120.594969 305 1391ft 101kts
10-Jul-18 03:54 35.227004 -120.622779 304 496ft 96kts
10-Jul-18 03:55 35.238251 -120.642438 307 183ft 38kts
10-Jul-18 03:56 35.238386 -120.640925 123 187ft 15kts
10-Jul-18 03:57 35.237878 -120.638152 255 198ft 6kts
10-Jul-18 03:58 35.237871 -120.638226 269 198ft 0kts
10-Jul-18 03:59 35.237871 -120.638226 269 198ft 0kts
10-Jul-18 04:00 35.237512 -120.638185 349 198ft 0kts
10-Jul-18 04:01 35.237511 -120.638185 348 198ft 0kts
10-Jul-18 04:02 35.237511 -120.638185 348 198ft 0kts
10-Jul-18 04:03 35.237511 -120.638185 348 198ft 0kts
10-Jul-18 04:04 35.237511 -120.638185 348 198ft 0kts
10-Jul-18 04:05 35.237511 -120.638185 348 198ft 0kts
10-Jul-18 04:06 35.237511 -120.638185 348 198ft 0kts
10-Jul-18 04:07 35.237511 -120.638185 348 198ft 0kts
10-Jul-18 04:08 35.237511 -120.638185 348 198ft 0kts
10-Jul-18 04:09 35.237511 -120.638185 348 198ft 0kts

Navigation Log

Ident Type
Flight plan parsing failed, navigation log unavailable